sensor_id;sensor_type;location;lat;lon;timestamp;pressure;altitude;pressure_sealevel;temperature;humidity
63009;BME280;49099;28.428;-16.488;2023-05-20T00:01:28;98810.94;;;21.20;47.00
63009;BME280;49099;28.428;-16.488;2023-05-20T00:03:55;98811.91;;;21.15;46.91
63009;BME280;49099;28.428;-16.488;2023-05-20T00:06:23;98801.91;;;21.16;46.65
63009;BME280;49099;28.428;-16.488;2023-05-20T00:08:50;98797.13;;;21.22;46.75
63009;BME280;49099;28.428;-16.488;2023-05-20T00:11:17;98803.78;;;21.24;46.39
63009;BME280;49099;28.428;-16.488;2023-05-20T00:13:44;98792.97;;;21.24;46.13
63009;BME280;49099;28.428;-16.488;2023-05-20T00:16:12;98792.03;;;21.29;45.83
63009;BME280;49099;28.428;-16.488;2023-05-20T00:18:39;98787.09;;;21.31;45.61
63009;BME280;49099;28.428;-16.488;2023-05-20T00:21:07;98779.97;;;21.26;46.27
63009;BME280;49099;28.428;-16.488;2023-05-20T00:23:34;98776.66;;;21.29;46.18
63009;BME280;49099;28.428;-16.488;2023-05-20T00:26:01;98774.72;;;21.30;45.06
63009;BME280;49099;28.428;-16.488;2023-05-20T00:28:28;98774.09;;;21.24;45.15
63009;BME280;49099;28.428;-16.488;2023-05-20T00:30:56;98770.31;;;21.25;45.85
63009;BME280;49099;28.428;-16.488;2023-05-20T00:33:24;98772.81;;;21.30;45.65
63009;BME280;49099;28.428;-16.488;2023-05-20T00:35:51;98766.97;;;21.28;45.11
63009;BME280;49099;28.428;-16.488;2023-05-20T00:38:18;98767.59;;;21.25;45.54
63009;BME280;49099;28.428;-16.488;2023-05-20T00:40:45;98773.63;;;21.22;45.10
63009;BME280;49099;28.428;-16.488;2023-05-20T00:43:12;98774.91;;;21.25;45.09
63009;BME280;49099;28.428;-16.488;2023-05-20T00:45:40;98776.66;;;21.21;44.42
63009;BME280;49099;28.428;-16.488;2023-05-20T00:48:07;98769.69;;;21.20;44.59
63009;BME280;49099;28.428;-16.488;2023-05-20T00:50:35;98770.50;;;21.20;45.41
63009;BME280;49099;28.428;-16.488;2023-05-20T00:53:02;98773.03;;;21.17;44.93
63009;BME280;49099;28.428;-16.488;2023-05-20T00:55:30;98761.66;;;21.11;45.29
63009;BME280;49099;28.428;-16.488;2023-05-20T00:57:57;98770.09;;;21.09;44.98
63009;BME280;49099;28.428;-16.488;2023-05-20T01:00:25;98763.91;;;21.09;45.14
63009;BME280;49099;28.428;-16.488;2023-05-20T01:02:54;98768.63;;;21.12;45.19
63009;BME280;49099;28.428;-16.488;2023-05-20T01:05:22;98758.31;;;21.14;44.91
63009;BME280;49099;28.428;-16.488;2023-05-20T01:07:49;98751.78;;;21.15;44.90
63009;BME280;49099;28.428;-16.488;2023-05-20T01:10:17;98751.78;;;21.15;45.38
63009;BME280;49099;28.428;-16.488;2023-05-20T01:12:50;98749.88;;;21.15;45.72
63009;BME280;49099;28.428;-16.488;2023-05-20T01:15:21;98752.41;;;21.21;45.94
63009;BME280;49099;28.428;-16.488;2023-05-20T01:17:51;98751.00;;;21.14;47.16
63009;BME280;49099;28.428;-16.488;2023-05-20T01:20:23;98744.69;;;21.10;47.22
63009;BME280;49099;28.428;-16.488;2023-05-20T01:22:55;98733.13;;;21.10;47.06
63009;BME280;49099;28.428;-16.488;2023-05-20T01:25:23;98730.88;;;21.12;46.77
63009;BME280;49099;28.428;-16.488;2023-05-20T01:27:55;98736.25;;;21.12;46.46
63009;BME280;49099;28.428;-16.488;2023-05-20T01:30:32;98715.34;;;21.09;46.12
63009;BME280;49099;28.428;-16.488;2023-05-20T01:33:04;98723.44;;;21.09;46.07
63009;BME280;49099;28.428;-16.488;2023-05-20T01:35:33;98717.56;;;21.07;46.18
63009;BME280;49099;28.428;-16.488;2023-05-20T01:38:04;98712.16;;;21.07;45.33
63009;BME280;49099;28.428;-16.488;2023-05-20T01:40:33;98716.00;;;21.06;45.97
63009;BME280;49099;28.428;-16.488;2023-05-20T01:43:01;98711.06;;;21.08;45.56
63009;BME280;49099;28.428;-16.488;2023-05-20T01:45:28;98704.56;;;21.09;44.92
63009;BME280;49099;28.428;-16.488;2023-05-20T01:47:57;98697.56;;;21.08;44.70
63009;BME280;49099;28.428;-16.488;2023-05-20T01:50:24;98697.56;;;21.08;45.05
63009;BME280;49099;28.428;-16.488;2023-05-20T01:52:52;98699.81;;;21.06;44.74
63009;BME280;49099;28.428;-16.488;2023-05-20T01:55:19;98686.00;;;21.07;45.62
63009;BME280;49099;28.428;-16.488;2023-05-20T01:57:46;98689.47;;;21.08;45.54
63009;BME280;49099;28.428;-16.488;2023-05-20T02:00:14;98689.03;;;21.06;45.92
63009;BME280;49099;28.428;-16.488;2023-05-20T02:02:41;98679.69;;;21.03;45.83
63009;BME280;49099;28.428;-16.488;2023-05-20T02:05:09;98678.75;;;20.99;44.97
63009;BME280;49099;28.428;-16.488;2023-05-20T02:07:36;98675.00;;;20.92;44.77
63009;BME280;49099;28.428;-16.488;2023-05-20T02:10:04;98668.88;;;20.82;45.71
63009;BME280;49099;28.428;-16.488;2023-05-20T02:12:31;98658.09;;;20.82;45.28
63009;BME280;49099;28.428;-16.488;2023-05-20T02:14:58;98654.16;;;20.80;45.27
63009;BME280;49099;28.428;-16.488;2023-05-20T02:17:25;98662.56;;;20.78;45.17
63009;BME280;49099;28.428;-16.488;2023-05-20T02:19:52;98658.41;;;20.81;44.56
63009;BME280;49099;28.428;-16.488;2023-05-20T02:22:20;98655.84;;;20.84;44.98
63009;BME280;49099;28.428;-16.488;2023-05-20T02:24:47;98646.19;;;20.83;43.94
63009;BME280;49099;28.428;-16.488;2023-05-20T02:27:14;98648.88;;;20.83;44.19
63009;BME280;49099;28.428;-16.488;2023-05-20T02:29:42;98650.47;;;20.84;44.47
63009;BME280;49099;28.428;-16.488;2023-05-20T02:32:10;98649.53;;;20.80;44.30
63009;BME280;49099;28.428;-16.488;2023-05-20T02:34:38;98659.53;;;20.80;44.11
63009;BME280;49099;28.428;-16.488;2023-05-20T02:37:05;98651.78;;;20.78;43.79
63009;BME280;49099;28.428;-16.488;2023-05-20T02:39:32;98654.28;;;20.83;44.02
63009;BME280;49099;28.428;-16.488;2023-05-20T02:41:59;98655.84;;;20.84;43.97
63009;BME280;49099;28.428;-16.488;2023-05-20T02:44:26;98650.47;;;20.84;43.53
63009;BME280;49099;28.428;-16.488;2023-05-20T02:46:53;98647.31;;;20.82;44.09
63009;BME280;49099;28.428;-16.488;2023-05-20T02:49:21;98638.88;;;20.84;44.17
63009;BME280;49099;28.428;-16.488;2023-05-20T02:51:48;98639.56;;;20.81;44.13
63009;BME280;49099;28.428;-16.488;2023-05-20T02:54:15;98640.78;;;20.83;44.46
63009;BME280;49099;28.428;-16.488;2023-05-20T02:56:42;98644.94;;;20.81;44.41
63009;BME280;49099;28.428;-16.488;2023-05-20T02:59:09;98641.91;;;20.82;44.52
63009;BME280;49099;28.428;-16.488;2023-05-20T03:01:36;98635.41;;;20.83;44.43
63009;BME280;49099;28.428;-16.488;2023-05-20T03:04:04;98636.53;;;20.82;44.65
63009;BME280;49099;28.428;-16.488;2023-05-20T03:06:31;98636.53;;;20.82;44.56
63009;BME280;49099;28.428;-16.488;2023-05-20T03:08:58;98630.34;;;20.82;44.79
63009;BME280;49099;28.428;-16.488;2023-05-20T03:11:26;98622.59;;;20.80;45.25
63009;BME280;49099;28.428;-16.488;2023-05-20T03:13:53;98625.63;;;20.79;45.08
63009;BME280;49099;28.428;-16.488;2023-05-20T03:16:22;98626.41;;;20.79;45.10
63009;BME280;49099;28.428;-16.488;2023-05-20T03:18:51;98622.91;;;20.79;44.89
63009;BME280;49099;28.428;-16.488;2023-05-20T03:21:20;98624.16;;;20.81;45.29
63009;BME280;49099;28.428;-16.488;2023-05-20T03:23:49;98615.63;;;20.79;45.04
63009;BME280;49099;28.428;-16.488;2023-05-20T03:26:16;98615.63;;;20.79;44.91
63009;BME280;49099;28.428;-16.488;2023-05-20T03:28:44;98621.00;;;20.79;45.48
63009;BME280;49099;28.428;-16.488;2023-05-20T03:31:11;98617.84;;;20.77;45.18
63009;BME280;49099;28.428;-16.488;2023-05-20T03:33:38;98610.22;;;20.79;45.45
63009;BME280;49099;28.428;-16.488;2023-05-20T03:36:05;98608.19;;;20.76;46.73
63009;BME280;49099;28.428;-16.488;2023-05-20T03:38:32;98603.78;;;20.72;46.28
63009;BME280;49099;28.428;-16.488;2023-05-20T03:40:59;98611.72;;;20.68;46.99
63009;BME280;49099;28.428;-16.488;2023-05-20T03:43:27;98605.88;;;20.66;46.97
63009;BME280;49099;28.428;-16.488;2023-05-20T03:45:54;98605.69;;;20.71;46.81
63009;BME280;49099;28.428;-16.488;2023-05-20T03:48:22;98614.69;;;20.75;46.88
63009;BME280;49099;28.428;-16.488;2023-05-20T03:50:49;98609.28;;;20.75;47.17
63009;BME280;49099;28.428;-16.488;2023-05-20T03:53:16;98597.72;;;20.75;46.91
63009;BME280;49099;28.428;-16.488;2023-05-20T03:55:45;98601.22;;;20.75;48.20
63009;BME280;49099;28.428;-16.488;2023-05-20T03:58:14;98595.38;;;20.73;48.13
63009;BME280;49099;28.428;-16.488;2023-05-20T04:00:41;98597.34;;;20.64;47.78
63009;BME280;49099;28.428;-16.488;2023-05-20T04:03:08;98585.63;;;20.60;48.21
63009;BME280;49099;28.428;-16.488;2023-05-20T04:05:36;98580.88;;;20.57;48.50
63009;BME280;49099;28.428;-16.488;2023-05-20T04:08:03;98586.28;;;20.57;48.28
63009;BME280;49099;28.428;-16.488;2023-05-20T04:10:32;98584.81;;;20.59;47.57
63009;BME280;49099;28.428;-16.488;2023-05-20T04:12:59;98580.81;;;20.66;47.21
63009;BME280;49099;28.428;-16.488;2023-05-20T04:15:26;98582.84;;;20.69;46.90
63009;BME280;49099;28.428;-16.488;2023-05-20T04:17:55;98582.34;;;20.75;47.34
63009;BME280;49099;28.428;-16.488;2023-05-20T04:20:23;98577.72;;;20.76;46.87
63009;BME280;49099;28.428;-16.488;2023-05-20T04:22:50;98575.38;;;20.74;46.83
63009;BME280;49099;28.428;-16.488;2023-05-20T04:25:18;98572.00;;;20.77;46.77
63009;BME280;49099;28.428;-16.488;2023-05-20T04:27:45;98574.06;;;20.80;46.75
63009;BME280;49099;28.428;-16.488;2023-05-20T04:30:12;98574.97;;;20.84;47.21
63009;BME280;49099;28.428;-16.488;2023-05-20T04:32:40;98570.69;;;20.83;46.77
63009;BME280;49099;28.428;-16.488;2023-05-20T04:35:07;98566.44;;;20.82;46.95
63009;BME280;49099;28.428;-16.488;2023-05-20T04:37:37;98570.69;;;20.83;46.91
63009;BME280;49099;28.428;-16.488;2023-05-20T04:40:05;98567.09;;;20.79;46.63
63009;BME280;49099;28.428;-16.488;2023-05-20T04:42:32;98570.25;;;20.81;46.66
63009;BME280;49099;28.428;-16.488;2023-05-20T04:45:00;98561.72;;;20.79;46.94
63009;BME280;49099;28.428;-16.488;2023-05-20T04:47:27;98567.75;;;20.76;46.99
63009;BME280;49099;28.428;-16.488;2023-05-20T04:49:55;98569.53;;;20.72;46.93
63009;BME280;49099;28.428;-16.488;2023-05-20T04:52:25;98564.13;;;20.72;47.01
63009;BME280;49099;28.428;-16.488;2023-05-20T04:54:52;98566.16;;;20.75;46.74
63009;BME280;49099;28.428;-16.488;2023-05-20T04:57:23;98566.16;;;20.75;46.88
63009;BME280;49099;28.428;-16.488;2023-05-20T04:59:51;98564.47;;;20.71;47.29
63009;BME280;49099;28.428;-16.488;2023-05-20T05:02:18;98568.59;;;20.68;47.48
63009;BME280;49099;28.428;-16.488;2023-05-20T05:04:45;98568.25;;;20.70;47.40
63009;BME280;49099;28.428;-16.488;2023-05-20T05:07:13;98570.94;;;20.70;47.26
63009;BME280;49099;28.428;-16.488;2023-05-20T05:09:40;98573.00;;;20.73;47.02
63009;BME280;49099;28.428;-16.488;2023-05-20T05:12:07;98572.22;;;20.72;47.30
63009;BME280;49099;28.428;-16.488;2023-05-20T05:14:34;98566.97;;;20.76;47.94
63009;BME280;49099;28.428;-16.488;2023-05-20T05:17:02;98564.84;;;20.81;47.78
63009;BME280;49099;28.428;-16.488;2023-05-20T05:19:29;98565.19;;;20.80;47.85
63009;BME280;49099;28.428;-16.488;2023-05-20T05:21:56;98562.94;;;20.82;47.56
63009;BME280;49099;28.428;-16.488;2023-05-20T05:24:23;98563.94;;;20.77;47.70
63009;BME280;49099;28.428;-16.488;2023-05-20T05:26:54;98566.84;;;20.72;47.81
63009;BME280;49099;28.428;-16.488;2023-05-20T05:29:21;98559.28;;;20.66;47.72
63009;BME280;49099;28.428;-16.488;2023-05-20T05:31:48;98564.31;;;20.67;47.30
63009;BME280;49099;28.428;-16.488;2023-05-20T05:34:15;98561.63;;;20.67;47.69
63009;BME280;49099;28.428;-16.488;2023-05-20T05:36:43;98554.47;;;20.71;47.06
63009;BME280;49099;28.428;-16.488;2023-05-20T05:39:10;98556.50;;;20.74;46.61
63009;BME280;49099;28.428;-16.488;2023-05-20T05:41:37;98557.63;;;20.73;46.59
63009;BME280;49099;28.428;-16.488;2023-05-20T05:44:04;98549.88;;;20.72;45.54
63009;BME280;49099;28.428;-16.488;2023-05-20T05:46:31;98545.13;;;20.69;45.62
63009;BME280;49099;28.428;-16.488;2023-05-20T05:48:59;98553.53;;;20.67;45.22
63009;BME280;49099;28.428;-16.488;2023-05-20T05:51:26;98546.91;;;20.65;44.89
63009;BME280;49099;28.428;-16.488;2023-05-20T05:53:54;98545.53;;;20.58;45.30
63009;BME280;49099;28.428;-16.488;2023-05-20T05:56:22;98547.81;;;20.48;45.27
63009;BME280;49099;28.428;-16.488;2023-05-20T05:58:49;98550.72;;;20.34;45.31
63009;BME280;49099;28.428;-16.488;2023-05-20T06:01:16;98542.03;;;20.28;45.24
63009;BME280;49099;28.428;-16.488;2023-05-20T06:03:44;98541.75;;;20.21;45.14
63009;BME280;49099;28.428;-16.488;2023-05-20T06:06:11;98543.03;;;20.24;45.50
63009;BME280;49099;28.428;-16.488;2023-05-20T06:08:38;98546.97;;;20.26;44.98
63009;BME280;49099;28.428;-16.488;2023-05-20T06:11:05;98552.19;;;20.31;44.27
63009;BME280;49099;28.428;-16.488;2023-05-20T06:13:32;98552.75;;;20.37;43.91
63009;BME280;49099;28.428;-16.488;2023-05-20T06:15:59;98552.63;;;20.34;43.56
63009;BME280;49099;28.428;-16.488;2023-05-20T06:18:26;98547.88;;;20.30;43.38
63009;BME280;49099;28.428;-16.488;2023-05-20T06:20:55;98554.50;;;20.12;43.68
63009;BME280;49099;28.428;-16.488;2023-05-20T06:23:22;98553.75;;;20.03;43.93
63009;BME280;49099;28.428;-16.488;2023-05-20T06:25:50;98561.50;;;20.04;44.94
63009;BME280;49099;28.428;-16.488;2023-05-20T06:28:17;98564.47;;;20.12;44.67
63009;BME280;49099;28.428;-16.488;2023-05-20T06:30:44;98557.63;;;20.14;45.09
63009;BME280;49099;28.428;-16.488;2023-05-20T06:33:11;98563.59;;;20.28;44.96
63009;BME280;49099;28.428;-16.488;2023-05-20T06:35:39;98562.41;;;20.38;44.16
63009;BME280;49099;28.428;-16.488;2023-05-20T06:38:06;98560.34;;;20.44;44.34
63009;BME280;49099;28.428;-16.488;2023-05-20T06:40:33;98560.03;;;20.45;45.01
63009;BME280;49099;28.428;-16.488;2023-05-20T06:43:00;98559.72;;;20.47;44.12
63009;BME280;49099;28.428;-16.488;2023-05-20T06:45:27;98562.09;;;20.48;44.29
63009;BME280;49099;28.428;-16.488;2023-05-20T06:47:54;98561.94;;;20.45;45.19
63009;BME280;49099;28.428;-16.488;2023-05-20T06:50:22;98566.03;;;20.51;44.60
63009;BME280;49099;28.428;-16.488;2023-05-20T06:52:49;98571.75;;;20.49;44.40
63009;BME280;49099;28.428;-16.488;2023-05-20T06:55:17;98565.13;;;20.47;45.84
63009;BME280;49099;28.428;-16.488;2023-05-20T06:57:44;98574.78;;;20.39;47.39
63009;BME280;49099;28.428;-16.488;2023-05-20T07:00:11;98583.63;;;20.48;46.85
63009;BME280;49099;28.428;-16.488;2023-05-20T07:02:40;98578.59;;;20.47;47.33
63009;BME280;49099;28.428;-16.488;2023-05-20T07:05:08;98572.72;;;20.45;48.80
63009;BME280;49099;28.428;-16.488;2023-05-20T07:07:35;98569.38;;;20.48;49.45
63009;BME280;49099;28.428;-16.488;2023-05-20T07:10:02;98565.25;;;20.42;51.11
63009;BME280;49099;28.428;-16.488;2023-05-20T07:12:32;98579.03;;;20.49;51.25
63009;BME280;49099;28.428;-16.488;2023-05-20T07:15:02;98579.81;;;20.49;52.20
63009;BME280;49099;28.428;-16.488;2023-05-20T07:17:30;98580.63;;;20.50;52.39
63009;BME280;49099;28.428;-16.488;2023-05-20T07:19:57;98580.31;;;20.43;52.88
63009;BME280;49099;28.428;-16.488;2023-05-20T07:22:24;98574.47;;;20.41;52.86
63009;BME280;49099;28.428;-16.488;2023-05-20T07:24:51;98568.59;;;20.39;53.52
63009;BME280;49099;28.428;-16.488;2023-05-20T07:27:19;98576.69;;;20.39;52.24
63009;BME280;49099;28.428;-16.488;2023-05-20T07:29:46;98574.78;;;20.39;51.95
63009;BME280;49099;28.428;-16.488;2023-05-20T07:32:13;98574.91;;;20.43;50.83
63009;BME280;49099;28.428;-16.488;2023-05-20T07:34:40;98582.84;;;20.48;50.78
63009;BME280;49099;28.428;-16.488;2023-05-20T07:37:08;98579.22;;;20.44;50.68
63009;BME280;49099;28.428;-16.488;2023-05-20T07:39:35;98580.88;;;20.57;50.39
63009;BME280;49099;28.428;-16.488;2023-05-20T07:42:03;98581.81;;;20.61;49.83
63009;BME280;49099;28.428;-16.488;2023-05-20T07:44:30;98579.25;;;20.65;49.48
63009;BME280;49099;28.428;-16.488;2023-05-20T07:46:57;98589.19;;;20.73;49.23
63009;BME280;49099;28.428;-16.488;2023-05-20T07:49:24;98587.59;;;20.72;49.16
63009;BME280;49099;28.428;-16.488;2023-05-20T07:51:52;98596.94;;;20.74;48.95
63009;BME280;49099;28.428;-16.488;2023-05-20T07:54:19;98591.53;;;20.74;48.11
63009;BME280;49099;28.428;-16.488;2023-05-20T07:56:46;98596.66;;;20.67;48.65
63009;BME280;49099;28.428;-16.488;2023-05-20T07:59:14;98595.88;;;20.67;48.17
63009;BME280;49099;28.428;-16.488;2023-05-20T08:01:41;98600.75;;;20.73;48.14
63009;BME280;49099;28.428;-16.488;2023-05-20T08:04:08;98598.19;;;20.77;47.68
63009;BME280;49099;28.428;-16.488;2023-05-20T08:06:36;98603.13;;;20.75;47.45
63009;BME280;49099;28.428;-16.488;2023-05-20T08:09:03;98600.09;;;20.76;47.19
63009;BME280;49099;28.428;-16.488;2023-05-20T08:11:30;98602.16;;;20.79;47.16
63009;BME280;49099;28.428;-16.488;2023-05-20T08:13:57;98606.81;;;20.91;46.97
63009;BME280;49099;28.428;-16.488;2023-05-20T08:16:24;98610.88;;;20.97;46.93
63009;BME280;49099;28.428;-16.488;2023-05-20T08:18:52;98609.44;;;21.00;46.69
63009;BME280;49099;28.428;-16.488;2023-05-20T08:21:19;98616.66;;;21.08;46.54
63009;BME280;49099;28.428;-16.488;2023-05-20T08:23:48;98609.97;;;21.14;46.86
63009;BME280;49099;28.428;-16.488;2023-05-20T08:26:15;98617.84;;;21.19;46.07
63009;BME280;49099;28.428;-16.488;2023-05-20T08:28:42;98615.41;;;21.26;46.11
63009;BME280;49099;28.428;-16.488;2023-05-20T08:31:09;98616.53;;;21.25;46.54
63009;BME280;49099;28.428;-16.488;2023-05-20T08:33:37;98613.84;;;21.25;46.77
63009;BME280;49099;28.428;-16.488;2023-05-20T08:36:04;98615.22;;;21.31;46.13
63009;BME280;49099;28.428;-16.488;2023-05-20T08:38:32;98620.31;;;21.24;45.50
63009;BME280;49099;28.428;-16.488;2023-05-20T08:40:59;98617.31;;;21.26;45.68
63009;BME280;49099;28.428;-16.488;2023-05-20T08:43:29;98616.53;;;21.25;46.05
63009;BME280;49099;28.428;-16.488;2023-05-20T08:45:58;98614.00;;;21.29;46.05
63009;BME280;49099;28.428;-16.488;2023-05-20T08:48:25;98620.16;;;21.29;45.15
63009;BME280;49099;28.428;-16.488;2023-05-20T08:50:56;98628.66;;;21.19;44.88
63009;BME280;49099;28.428;-16.488;2023-05-20T08:53:24;98623.88;;;21.16;45.32
63009;BME280;49099;28.428;-16.488;2023-05-20T08:56:01;98628.72;;;21.10;45.60
63009;BME280;49099;28.428;-16.488;2023-05-20T08:58:31;98629.69;;;21.06;46.03
63009;BME280;49099;28.428;-16.488;2023-05-20T09:00:59;98637.16;;;21.09;46.32
63009;BME280;49099;28.428;-16.488;2023-05-20T09:03:26;98631.53;;;21.14;45.42
63009;BME280;49099;28.428;-16.488;2023-05-20T09:06:05;98631.00;;;21.21;44.44
63009;BME280;49099;28.428;-16.488;2023-05-20T09:08:33;98629.84;;;21.30;44.17
63009;BME280;49099;28.428;-16.488;2023-05-20T09:11:01;98627.84;;;21.39;43.83
63009;BME280;49099;28.428;-16.488;2023-05-20T09:13:31;98634.38;;;21.38;44.17
63009;BME280;49099;28.428;-16.488;2023-05-20T09:15:59;98636.41;;;21.41;44.46
63009;BME280;49099;28.428;-16.488;2023-05-20T09:18:28;98643.66;;;21.50;43.47
63009;BME280;49099;28.428;-16.488;2023-05-20T09:20:55;98644.72;;;21.36;44.12
63009;BME280;49099;28.428;-16.488;2023-05-20T09:23:23;98643.59;;;21.37;43.42
63009;BME280;49099;28.428;-16.488;2023-05-20T09:25:53;98639.19;;;21.33;43.59
63009;BME280;49099;28.428;-16.488;2023-05-20T09:28:22;98642.47;;;21.38;43.21
63009;BME280;49099;28.428;-16.488;2023-05-20T09:30:59;98648.00;;;21.42;42.48
63009;BME280;49099;28.428;-16.488;2023-05-20T09:33:28;98655.69;;;21.52;42.76
63009;BME280;49099;28.428;-16.488;2023-05-20T09:36:03;98650.19;;;21.61;42.51
63009;BME280;49099;28.428;-16.488;2023-05-20T09:38:36;98650.66;;;21.63;42.78
63009;BME280;49099;28.428;-16.488;2023-05-20T09:41:13;98647.22;;;21.75;43.22
63009;BME280;49099;28.428;-16.488;2023-05-20T09:43:43;98646.44;;;21.86;43.22
63009;BME280;49099;28.428;-16.488;2023-05-20T09:46:10;98657.19;;;22.07;42.40
63009;BME280;49099;28.428;-16.488;2023-05-20T09:48:38;98657.06;;;22.04;42.84
63009;BME280;49099;28.428;-16.488;2023-05-20T09:51:05;98660.34;;;22.09;43.44
63009;BME280;49099;28.428;-16.488;2023-05-20T09:53:34;98645.78;;;22.02;43.10
63009;BME280;49099;28.428;-16.488;2023-05-20T09:56:02;98652.31;;;22.01;43.18
63009;BME280;49099;28.428;-16.488;2023-05-20T09:58:29;98647.47;;;21.94;43.47
63009;BME280;49099;28.428;-16.488;2023-05-20T10:00:56;98654.03;;;22.05;43.60
63009;BME280;49099;28.428;-16.488;2023-05-20T10:03:24;98651.94;;;22.11;43.86
63009;BME280;49099;28.428;-16.488;2023-05-20T10:09:02;98647.44;;;22.39;42.84
63009;BME280;49099;28.428;-16.488;2023-05-20T10:11:46;98653.06;;;22.46;42.30
63009;BME280;49099;28.428;-16.488;2023-05-20T10:20:12;98650.03;;;22.60;41.57
63009;BME280;49099;28.428;-16.488;2023-05-20T10:22:39;98651.47;;;22.70;41.94
63009;BME280;49099;28.428;-16.488;2023-05-20T10:25:11;98657.81;;;22.74;41.48
63009;BME280;49099;28.428;-16.488;2023-05-20T10:27:50;98651.81;;;22.80;40.84
63009;BME280;49099;28.428;-16.488;2023-05-20T10:30:19;98656.66;;;22.87;39.77
63009;BME280;49099;28.428;-16.488;2023-05-20T10:32:56;98654.16;;;23.06;38.29
63009;BME280;49099;28.428;-16.488;2023-05-20T10:35:25;98655.66;;;23.32;38.31
63009;BME280;49099;28.428;-16.488;2023-05-20T10:37:54;98655.16;;;23.42;38.43
63009;BME280;49099;28.428;-16.488;2023-05-20T10:40:22;98657.22;;;23.33;37.99
63009;BME280;49099;28.428;-16.488;2023-05-20T10:42:49;98657.53;;;23.44;37.44
63009;BME280;49099;28.428;-16.488;2023-05-20T10:45:49;98662.44;;;23.26;37.51
63009;BME280;49099;28.428;-16.488;2023-05-20T10:48:23;98668.91;;;23.21;37.71
63009;BME280;49099;28.428;-16.488;2023-05-20T10:50:59;98659.41;;;23.27;37.92
63009;BME280;49099;28.428;-16.488;2023-05-20T10:53:38;98671.91;;;23.32;37.28
63009;BME280;49099;28.428;-16.488;2023-05-20T10:56:24;98671.13;;;23.31;37.63
63009;BME280;49099;28.428;-16.488;2023-05-20T10:58:53;98674.88;;;23.27;37.36
63009;BME280;49099;28.428;-16.488;2023-05-20T11:01:25;98661.34;;;23.27;36.96
63009;BME280;49099;28.428;-16.488;2023-05-20T11:03:53;98673.47;;;23.33;37.30
63009;BME280;49099;28.428;-16.488;2023-05-20T11:06:27;98673.47;;;23.33;37.58
63009;BME280;49099;28.428;-16.488;2023-05-20T11:08:54;98671.28;;;23.51;36.85
63009;BME280;49099;28.428;-16.488;2023-05-20T11:11:29;98667.78;;;23.50;37.21
63009;BME280;49099;28.428;-16.488;2023-05-20T11:13:56;98666.75;;;23.55;38.16
63009;BME280;49099;28.428;-16.488;2023-05-20T11:16:24;98670.94;;;23.52;38.89
63009;BME280;49099;28.428;-16.488;2023-05-20T11:18:51;98666.84;;;23.58;38.94
63009;BME280;49099;28.428;-16.488;2023-05-20T11:21:19;98672.47;;;23.66;38.80
63009;BME280;49099;28.428;-16.488;2023-05-20T11:23:46;98660.75;;;23.61;38.13
63009;BME280;49099;28.428;-16.488;2023-05-20T11:26:13;98663.66;;;23.69;38.06
63009;BME280;49099;28.428;-16.488;2023-05-20T11:28:40;98662.44;;;23.66;37.92
63009;BME280;49099;28.428;-16.488;2023-05-20T11:31:08;98650.13;;;23.69;37.69
63009;BME280;49099;28.428;-16.488;2023-05-20T11:33:40;98663.56;;;23.65;38.29
63009;BME280;49099;28.428;-16.488;2023-05-20T11:36:08;98661.25;;;23.51;38.85
63009;BME280;49099;28.428;-16.488;2023-05-20T11:38:53;98662.81;;;23.52;38.79
63009;BME280;49099;28.428;-16.488;2023-05-20T11:41:25;98666.84;;;23.58;38.09
63009;BME280;49099;28.428;-16.488;2023-05-20T11:43:59;98653.19;;;23.67;37.87
63009;BME280;49099;28.428;-16.488;2023-05-20T11:46:27;98659.38;;;23.68;37.47
63009;BME280;49099;28.428;-16.488;2023-05-20T11:48:55;98659.66;;;23.78;37.25
63009;BME280;49099;28.428;-16.488;2023-05-20T11:51:26;98660.38;;;23.75;36.33
63009;BME280;49099;28.428;-16.488;2023-05-20T11:54:03;98673.38;;;23.70;37.23
63009;BME280;49099;28.428;-16.488;2023-05-20T11:56:38;98668.75;;;23.86;37.54
63009;BME280;49099;28.428;-16.488;2023-05-20T11:59:09;98668.72;;;23.98;37.28
63009;BME280;49099;28.428;-16.488;2023-05-20T12:01:38;98659.69;;;23.94;37.77
63009;BME280;49099;28.428;-16.488;2023-05-20T12:04:09;98668.53;;;24.07;37.87
63009;BME280;49099;28.428;-16.488;2023-05-20T12:06:38;98662.81;;;23.96;38.98
63009;BME280;49099;28.428;-16.488;2023-05-20T12:09:06;98659.84;;;23.85;39.93
63009;BME280;49099;28.428;-16.488;2023-05-20T12:11:38;98652.13;;;23.72;39.88
63009;BME280;49099;28.428;-16.488;2023-05-20T12:14:10;98662.88;;;23.68;39.89
63009;BME280;49099;28.428;-16.488;2023-05-20T12:16:37;98661.81;;;23.73;39.69
63009;BME280;49099;28.428;-16.488;2023-05-20T12:19:04;98657.47;;;23.68;39.64
63009;BME280;49099;28.428;-16.488;2023-05-20T12:21:32;98663.53;;;23.93;39.04
63009;BME280;49099;28.428;-16.488;2023-05-20T12:23:59;98660.81;;;23.77;39.82
63009;BME280;49099;28.428;-16.488;2023-05-20T12:26:28;98661.16;;;23.76;39.31
63009;BME280;49099;28.428;-16.488;2023-05-20T12:28:55;98658.06;;;23.61;40.01
63009;BME280;49099;28.428;-16.488;2023-05-20T12:31:23;98656.22;;;23.66;39.20
63009;BME280;49099;28.428;-16.488;2023-05-20T12:33:51;98647.44;;;23.56;39.30
63009;BME280;49099;28.428;-16.488;2023-05-20T12:36:18;98656.97;;;23.50;40.21
63009;BME280;49099;28.428;-16.488;2023-05-20T12:38:45;98655.34;;;23.49;40.76
63009;BME280;49099;28.428;-16.488;2023-05-20T12:41:12;98646.81;;;23.47;42.23
63009;BME280;49099;28.428;-16.488;2023-05-20T12:43:40;98644.72;;;23.56;43.18
63009;BME280;49099;28.428;-16.488;2023-05-20T12:46:07;98649.28;;;23.52;43.61
63009;BME280;49099;28.428;-16.488;2023-05-20T12:48:34;98637.75;;;23.55;43.77
63009;BME280;49099;28.428;-16.488;2023-05-20T12:51:03;98646.31;;;23.85;43.96
63009;BME280;49099;28.428;-16.488;2023-05-20T12:53:30;98646.91;;;23.79;45.38
63009;BME280;49099;28.428;-16.488;2023-05-20T12:55:57;98645.72;;;23.92;45.06